Strona główna
METAR-TAF:

METAR-TAF

Lotnisko :

Port lotniczy Philip S.W. Goldson

Belize City, Belize

Szerokość geograficzna: 17-32N, Długość geograficzna: 088-18W, wysokość: 5 m

Aktualna obserwacja pogody

Raport powstał 49 minut temu, godzina 22:00 UTC
Wiatr 10 kt od wschodnio-północny wschód
Temperatura 31°C
Wilgotność 71%
Ciśnienie 1007 hPa
Widzialność 10 km lub więcej
Mało chmury na wysokości 2500 ft

METAR: MZBZ 212200Z 07010KT 9999 FEW025 31/25 A2976 Q1007 NOSIG RMK DIST CB-S/NE

czas: 16:49 (22:49 UTC)

Prognoza

Raport powstał 7 godziny i 49 minut temu, godzina 15:00 UTC
Prognoza ważna od 21 godzina 18 UTC do 22 godzina 18 UTC
Wiatr 8 kt od wschodnio-północny wschód
Widzialność 10 km lub więcej
Rozproszone chmury na wysokości 2400 ft
Prawdopodobieństwo 30% :
Przejściowo
od 22 godzina 10 UTC do 22 godzina 16 UTC
Widzialność: 5000 m
Przerywane chmury na wysokości 1500 ft
przelotny opad deszczu

TAF: MZBZ 211500Z 2118/2218 07008KT 9999 SCT024 PROB30 TEMPO 2210/2216 5000 SHRA BKN015

Obserwacja i prognoza pogody dla ponad 4000 lotnisk (raport METAR i TAF).

Dostępne stacje oznaczono żółtymi i czerwonymi punktami na mapie.

Najedź kursorem aby zobaczyć nazwę stacji.

Kliknij aby zobaczyć obserwacje i prognozy pogody.

Aby zmienić mapę: kliknij na zielony przycisk z czarnym krzyżykiem, aby powiększyć; na zielony przycisk z myślnikiem, aby pomniejszyć; na zielone strzałki, aby przejść do map sąsiednich.


METAR-TAF: